Time;durP1;ratioP1;P1;durP2;ratioP2;P2;SDS_P1;SDS_P2;PMS_P1;PMS_P2;Temp;Humidity;BMP_temperature;BMP_pressure;BME280_temperature;BME280_humidity;BME280_pressure;Samples;Min_cycle;Max_cycle;Signal;HPM_P1;HPM_P2
2022/07/14 00:03:01;;;;;;;1.17;1.08;;;18.00;99.80;;;;;;6116308;29;20283;-67
2022/07/14 00:06:07;;;;;;;2.85;1.67;;;17.90;99.90;;;;;;6135462;29;20274;-67
2022/07/14 00:09:13;;;;;;;8.23;1.83;;;18.00;99.60;;;;;;6140300;29;20275;-67
2022/07/14 00:12:18;;;;;;;23.70;2.08;;;18.10;99.40;;;;;;6140154;28;20456;-67
2022/07/14 00:15:23;;;;;;;9.90;1.65;;;18.00;99.50;;;;;;6188082;28;20278;-67
2022/07/14 00:18:31;;;;;;;10.95;1.48;;;18.00;99.40;;;;;;6187574;28;20294;-67
2022/07/14 00:21:36;;;;;;;12.45;1.80;;;17.90;99.80;;;;;;6192349;28;20429;-67
2022/07/14 00:24:41;;;;;;;8.07;1.30;;;18.00;99.60;;;;;;6192622;28;20277;-67
2022/07/14 00:27:46;;;;;;;10.82;1.80;;;18.00;99.70;;;;;;6192482;28;20280;-67
2022/07/14 00:30:52;;;;;;;8.88;1.30;;;18.00;99.80;;;;;;6192568;28;20273;-67
2022/07/14 00:34:00;;;;;;;14.98;1.77;;;18.00;99.70;;;;;;6192427;28;20478;-67
2022/07/14 00:37:05;;;;;;;4.40;1.60;;;18.00;99.70;;;;;;6192399;28;20274;-67
2022/07/14 00:40:14;;;;;;;8.77;1.45;;;18.00;99.70;;;;;;6192341;28;20277;-67
2022/07/14 00:43:19;;;;;;;6.20;1.40;;;17.90;99.80;;;;;;6192290;28;20277;-67
2022/07/14 00:46:24;;;;;;;5.88;1.60;;;17.90;99.90;;;;;;6192179;28;20561;-67
2022/07/14 00:49:38;;;;;;;3.53;1.48;;;17.90;99.90;;;;;;6192199;28;20278;-67
2022/07/14 00:52:44;;;;;;;1.73;1.20;;;17.90;99.90;;;;;;6191640;28;20269;-67
2022/07/14 00:55:50;;;;;;;5.00;1.42;;;17.90;99.90;;;;;;6191782;28;20516;-67
2022/07/14 00:58:55;;;;;;;7.10;1.40;;;17.90;99.90;;;;;;6191495;28;20273;-67
2022/07/14 01:02:00;;;;;;;5.55;1.50;;;17.70;99.90;;;;;;6174677;28;20294;-67
2022/07/14 01:05:09;;;;;;;2.05;1.30;;;17.70;99.90;;;;;;6181041;28;20266;-67
2022/07/14 01:08:15;;;;;;;6.13;1.45;;;17.70;99.90;;;;;;6167737;29;20274;-67
2022/07/14 01:11:21;;;;;;;6.90;1.20;;;17.70;99.90;;;;;;6166535;28;20278;-67
2022/07/14 01:14:26;;;;;;;2.85;1.50;;;17.70;99.90;;;;;;6167129;29;20302;-67
2022/07/14 01:17:32;;;;;;;2.72;1.25;;;17.60;99.90;;;;;;6166550;28;20481;-67
2022/07/14 01:20:41;;;;;;;5.35;1.70;;;17.60;99.90;;;;;;6166123;29;20278;-67
2022/07/14 01:23:49;;;;;;;5.63;1.77;;;17.60;99.90;;;;;;6166464;28;20278;-67
2022/07/14 01:26:55;;;;;;;2.80;1.52;;;17.60;99.90;;;;;;6167673;28;20274;-67
2022/07/14 01:30:00;;;;;;;7.25;1.90;;;17.60;99.90;;;;;;6166221;29;20274;-67
2022/07/14 01:33:06;;;;;;;11.15;1.83;;;17.50;99.90;;;;;;6165629;28;20439;-67
2022/07/14 01:36:12;;;;;;;10.20;1.80;;;17.50;99.90;;;;;;6166052;29;20562;-67
2022/07/14 01:39:19;;;;;;;7.70;1.35;;;17.50;99.90;;;;;;6166218;29;20278;-67
2022/07/14 01:42:24;;;;;;;3.00;1.50;;;17.40;99.90;;;;;;6166837;28;20566;-67
2022/07/14 01:45:32;;;;;;;5.78;1.00;;;17.40;99.90;;;;;;6166731;29;20470;-67
2022/07/14 01:48:38;;;;;;;2.08;0.80;;;17.40;99.90;;;;;;6165819;29;20279;-67
2022/07/14 01:51:43;;;;;;;1.98;0.90;;;17.40;99.90;;;;;;6165938;28;20278;-67
2022/07/14 01:54:50;;;;;;;1.75;1.05;;;17.40;99.90;;;;;;6165589;28;20297;-67
2022/07/14 01:57:55;;;;;;;0.98;0.98;;;17.40;99.90;;;;;;6165540;28;20274;-67
2022/07/14 02:04:22;;;;;;;2.55;1.08;;;17.40;99.90;;;;;;6154488;29;20263;-67
2022/07/14 02:07:27;;;;;;;1.23;0.95;;;17.40;99.90;;;;;;6164988;29;20274;-67
2022/07/14 02:14:07;;;;;;;1.05;1.00;;;17.30;99.90;;;;;;6164764;29;20311;-67
2022/07/14 02:17:13;;;;;;;2.47;1.10;;;17.20;99.90;;;;;;6164790;29;20278;-68
2022/07/14 02:20:18;;;;;;;1.13;1.13;;;17.30;99.90;;;;;;6166074;28;20274;-67
2022/07/14 02:23:25;;;;;;;1.10;1.10;;;17.20;99.90;;;;;;6165713;28;20274;-67
2022/07/14 02:26:31;;;;;;;2.83;1.15;;;17.20;99.90;;;;;;6165457;28;20497;-67
2022/07/14 02:29:37;;;;;;;2.42;1.23;;;17.20;99.90;;;;;;6164766;29;20274;-67
2022/07/14 02:32:42;;;;;;;1.75;0.82;;;17.10;99.90;;;;;;6165828;28;20279;-67
2022/07/14 02:35:47;;;;;;;3.22;1.30;;;17.10;99.90;;;;;;6165231;29;20298;-67
2022/07/14 02:38:53;;;;;;;2.42;1.10;;;17.20;99.90;;;;;;6164560;29;20278;-67
2022/07/14 02:41:59;;;;;;;0.90;0.80;;;17.20;99.90;;;;;;6163875;28;20278;-67
2022/07/14 02:45:08;;;;;;;0.90;0.90;;;17.20;99.90;;;;;;6163703;29;20279;-67
2022/07/14 02:48:17;;;;;;;2.15;0.88;;;17.20;99.90;;;;;;6164052;29;20456;-67
2022/07/14 02:51:23;;;;;;;1.10;1.10;;;17.10;99.90;;;;;;6164166;29;20277;-67
2022/07/14 02:54:28;;;;;;;1.10;1.10;;;17.10;99.90;;;;;;6163720;29;20278;-67
2022/07/14 02:57:35;;;;;;;0.80;0.80;;;17.10;99.90;;;;;;6163773;29;20278;-67
2022/07/14 03:00:41;;;;;;;0.80;0.80;;;17.10;99.90;;;;;;6163674;29;20576;-67
2022/07/14 03:03:47;;;;;;;0.95;0.95;;;17.20;99.90;;;;;;6163583;29;20278;-67
2022/07/14 03:06:53;;;;;;;1.38;0.90;;;17.10;99.90;;;;;;6164143;28;20278;-67
2022/07/14 03:10:00;;;;;;;0.85;0.80;;;17.10;99.90;;;;;;6164132;28;20274;-67
2022/07/14 03:13:08;;;;;;;0.90;0.90;;;17.10;99.90;;;;;;6163865;28;20307;-67
2022/07/14 03:16:14;;;;;;;0.90;0.90;;;17.00;99.20;;;;;;6163873;29;20294;-67
2022/07/14 03:19:21;;;;;;;0.90;0.90;;;17.00;99.30;;;;;;6163921;28;20278;-67
2022/07/14 03:22:26;;;;;;;1.08;1.08;;;16.90;99.30;;;;;;6165002;29;20274;-67
2022/07/14 03:25:35;;;;;;;0.90;0.90;;;17.00;99.70;;;;;;6163750;28;20338;-67
2022/07/14 03:28:41;;;;;;;1.58;1.10;;;17.00;99.90;;;;;;6163459;28;20581;-67
2022/07/14 03:31:47;;;;;;;1.27;1.10;;;17.00;99.90;;;;;;6163234;29;20274;-67
2022/07/14 03:34:53;;;;;;;0.80;0.80;;;17.00;99.90;;;;;;6162938;29;20294;-65
2022/07/14 03:37:58;;;;;;;0.80;0.80;;;17.10;99.90;;;;;;6163566;28;20275;-67
2022/07/14 03:41:27;;;;;;;1.02;1.02;;;17.10;99.90;;;;;;6147526;29;20274;-66
2022/07/14 03:44:33;;;;;;;0.82;0.82;;;17.10;99.90;;;;;;6163252;28;20274;-66
2022/07/14 03:47:42;;;;;;;0.80;0.80;;;17.10;99.90;;;;;;6163599;28;20291;-66
2022/07/14 03:50:49;;;;;;;0.95;0.95;;;17.00;99.60;;;;;;6163142;29;20279;-66
2022/07/14 03:53:55;;;;;;;3.00;0.73;;;16.80;99.30;;;;;;6163105;28;20274;-66
2022/07/14 03:57:03;;;;;;;0.80;0.80;;;16.80;98.70;;;;;;6168310;29;20294;-66
2022/07/14 04:00:14;;;;;;;0.70;0.70;;;16.70;98.60;;;;;;6167855;29;20356;-66
2022/07/14 04:03:24;;;;;;;0.70;0.70;;;16.80;98.60;;;;;;6168158;28;20458;-66
2022/07/14 04:06:30;;;;;;;0.70;0.70;;;16.80;98.70;;;;;;6181711;28;20270;-66
2022/07/14 04:09:36;;;;;;;0.80;0.80;;;16.70;98.10;;;;;;6167443;29;20273;-66
2022/07/14 04:12:41;;;;;;;0.90;0.90;;;16.60;98.10;;;;;;6171680;28;20302;-66
2022/07/14 04:15:49;;;;;;;0.80;0.80;;;16.70;98.40;;;;;;6175666;28;20297;-66
2022/07/14 04:18:55;;;;;;;0.80;0.80;;;16.80;98.60;;;;;;6192298;28;20281;-66
2022/07/14 04:22:01;;;;;;;0.70;0.70;;;16.70;98.20;;;;;;6175364;28;20466;-66
2022/07/14 04:25:27;;;;;;;1.02;0.70;;;16.70;97.70;;;;;;6175183;28;20273;-66
2022/07/14 04:28:45;;;;;;;0.80;0.80;;;16.60;98.20;;;;;;6176863;28;20584;-66
2022/07/14 04:31:52;;;;;;;0.70;0.70;;;16.60;98.00;;;;;;6174974;28;20279;-65
2022/07/14 04:35:00;;;;;;;0.82;0.82;;;16.60;97.60;;;;;;6175130;28;20269;-65
2022/07/14 04:38:06;;;;;;;1.35;0.80;;;16.50;97.30;;;;;;6175052;28;20297;-65
2022/07/14 04:41:20;;;;;;;0.73;0.70;;;16.50;96.90;;;;;;6174750;28;20274;-65
2022/07/14 04:44:25;;;;;;;0.98;0.80;;;16.50;97.00;;;;;;6174846;28;20468;-65
2022/07/14 04:47:32;;;;;;;4.40;0.90;;;16.30;96.40;;;;;;6175015;28;20277;-67
2022/07/14 04:54:02;;;;;;;0.70;0.70;;;16.30;96.30;;;;;;6174872;28;20274;-68
2022/07/14 04:57:30;;;;;;;0.85;0.85;;;16.40;96.60;;;;;;6184165;28;20294;-65
2022/07/14 05:00:39;;;;;;;0.90;0.60;;;16.40;96.00;;;;;;6174442;28;20552;-65
2022/07/14 05:03:46;;;;;;;0.60;0.60;;;16.30;96.40;;;;;;6174272;28;20274;-67
2022/07/14 05:06:55;;;;;;;0.50;0.50;;;16.20;95.80;;;;;;6125380;29;20279;-67
2022/07/14 05:10:00;;;;;;;0.82;0.80;;;16.30;95.80;;;;;;6126902;29;20275;-66
2022/07/14 05:13:07;;;;;;;0.80;0.80;;;16.40;95.70;;;;;;6126867;29;20302;-66
2022/07/14 05:16:12;;;;;;;0.80;0.80;;;16.50;95.60;;;;;;6126686;29;20275;-66
2022/07/14 05:19:19;;;;;;;1.15;0.60;;;16.50;95.60;;;;;;6126731;29;20464;-66
2022/07/14 05:22:25;;;;;;;0.70;0.70;;;16.60;95.30;;;;;;6126666;29;20279;-66
2022/07/14 05:25:30;;;;;;;0.98;0.73;;;16.50;94.80;;;;;;6126523;29;20280;-66
2022/07/14 05:28:35;;;;;;;0.60;0.60;;;16.50;94.80;;;;;;6126204;29;20443;-66
2022/07/14 05:31:42;;;;;;;3.80;0.75;;;16.60;94.40;;;;;;6143389;29;20540;-65
2022/07/14 05:34:49;;;;;;;0.70;0.70;;;16.70;94.30;;;;;;6126406;29;20319;-66
2022/07/14 05:37:56;;;;;;;3.15;0.80;;;16.80;94.20;;;;;;6125998;29;20396;-66
2022/07/14 05:41:03;;;;;;;0.70;0.70;;;16.80;93.70;;;;;;6126151;29;20278;-66
2022/07/14 05:44:12;;;;;;;0.80;0.80;;;16.90;93.60;;;;;;6126290;29;20364;-66
2022/07/14 05:47:18;;;;;;;1.25;0.75;;;16.80;93.40;;;;;;6126100;29;20279;-66
2022/07/14 05:50:25;;;;;;;0.73;0.70;;;16.90;93.10;;;;;;6125763;29;20279;-65
2022/07/14 05:53:30;;;;;;;0.68;0.68;;;17.00;92.90;;;;;;6125844;29;20347;-67
2022/07/14 05:56:36;;;;;;;2.15;0.88;;;17.20;93.00;;;;;;6142540;29;20350;-66
2022/07/14 05:59:42;;;;;;;0.80;0.80;;;17.30;92.80;;;;;;6125570;29;20437;-66
2022/07/14 06:02:52;;;;;;;4.18;0.95;;;17.60;92.20;;;;;;6125341;29;20275;-66
2022/07/14 06:06:08;;;;;;;0.93;0.63;;;18.00;93.80;;;;;;6153787;29;20267;-66
2022/07/14 06:09:15;;;;;;;1.45;0.68;;;17.90;91.90;;;;;;6164784;29;20278;-66
2022/07/14 06:12:21;;;;;;;2.50;0.60;;;18.00;92.30;;;;;;6166020;28;20275;-66
2022/07/14 06:15:26;;;;;;;3.90;0.63;;;17.90;91.60;;;;;;6172601;28;20277;-66
2022/07/14 06:18:31;;;;;;;0.80;0.80;;;18.00;91.70;;;;;;6172133;28;20473;-67
2022/07/14 06:21:39;;;;;;;2.35;0.73;;;18.10;91.70;;;;;;6172397;28;20278;-67
2022/07/14 06:24:44;;;;;;;0.60;0.60;;;18.30;92.30;;;;;;6172488;28;20274;-67
2022/07/14 06:27:55;;;;;;;2.25;0.70;;;18.60;91.40;;;;;;6172564;28;20270;-67
2022/07/14 06:31:00;;;;;;;1.40;0.70;;;18.40;90.80;;;;;;6171881;28;20273;-67
2022/07/14 06:34:07;;;;;;;0.70;0.70;;;18.30;91.10;;;;;;6172498;28;20274;-67
2022/07/14 06:37:24;;;;;;;0.88;0.88;;;18.50;92.30;;;;;;6171844;28;20348;-66
2022/07/14 06:40:30;;;;;;;1.27;0.80;;;18.70;91.40;;;;;;6187741;28;20339;-66
2022/07/14 06:43:35;;;;;;;0.80;0.80;;;18.90;91.30;;;;;;6171676;28;20277;-66
2022/07/14 06:46:44;;;;;;;1.83;1.15;;;19.00;91.60;;;;;;6171793;28;20431;-66
2022/07/14 06:49:49;;;;;;;2.05;0.77;;;19.10;90.30;;;;;;6171820;28;20299;-66
2022/07/14 06:52:56;;;;;;;0.73;0.70;;;19.00;89.90;;;;;;6171825;28;20538;-66
2022/07/14 06:56:01;;;;;;;0.80;0.80;;;19.00;90.00;;;;;;6188844;28;20273;-66
2022/07/14 06:59:06;;;;;;;0.88;0.73;;;19.20;90.90;;;;;;6188787;28;20620;-67
2022/07/14 07:02:12;;;;;;;0.73;0.73;;;19.00;89.00;;;;;;6188928;28;20273;-67
2022/07/14 07:08:42;;;;;;;0.63;0.63;;;19.30;90.40;;;;;;6164983;29;20278;-66
2022/07/14 07:11:50;;;;;;;0.93;0.77;;;19.20;89.40;;;;;;6164531;29;20278;-67
2022/07/14 07:14:55;;;;;;;2.20;0.80;;;19.20;90.50;;;;;;6165072;28;20477;-67
2022/07/14 07:18:01;;;;;;;1.73;0.80;;;19.40;89.90;;;;;;6164456;28;20298;-67
2022/07/14 07:21:07;;;;;;;2.28;0.50;;;19.30;87.20;;;;;;6164174;29;20343;-66
2022/07/14 07:24:15;;;;;;;1.08;0.80;;;19.30;88.30;;;;;;6164522;29;20283;-66
2022/07/14 07:27:20;;;;;;;0.55;0.55;;;19.60;88.80;;;;;;6164520;29;20279;-67
2022/07/14 07:30:25;;;;;;;0.88;0.88;;;19.40;87.50;;;;;;6164100;28;20278;-67
2022/07/14 07:33:30;;;;;;;0.80;0.80;;;19.60;87.80;;;;;;6164251;29;20274;-66
2022/07/14 07:36:36;;;;;;;0.80;0.80;;;19.70;89.90;;;;;;6164562;29;20274;-67
2022/07/14 07:40:00;;;;;;;0.80;0.80;;;19.90;88.30;;;;;;6164312;29;20294;-67
2022/07/14 07:43:05;;;;;;;0.63;0.63;;;19.60;85.00;;;;;;6164544;29;20270;-67
2022/07/14 07:46:11;;;;;;;3.60;0.93;;;19.70;86.80;;;;;;6164027;29;20279;-67
2022/07/14 07:49:17;;;;;;;1.95;0.93;;;19.70;87.40;;;;;;6164306;29;20578;-67
2022/07/14 07:52:23;;;;;;;1.58;0.75;;;19.80;87.10;;;;;;6164070;29;20339;-67
2022/07/14 07:55:29;;;;;;;6.70;1.00;;;20.00;87.20;;;;;;6163903;29;20280;-67
2022/07/14 07:58:34;;;;;;;0.73;0.68;;;19.90;88.70;;;;;;6163610;29;20294;-66
2022/07/14 08:01:40;;;;;;;1.48;0.90;;;19.60;87.10;;;;;;6164477;28;20274;-67
2022/07/14 08:04:45;;;;;;;5.30;1.00;;;19.70;87.60;;;;;;6164177;29;20264;-67
2022/07/14 08:07:51;;;;;;;0.70;0.70;;;19.80;89.00;;;;;;6163569;28;20274;-67
2022/07/14 08:10:57;;;;;;;2.70;0.70;;;19.70;87.40;;;;;;6163599;29;20278;-67
2022/07/14 08:14:03;;;;;;;0.70;0.70;;;19.80;87.20;;;;;;6177227;28;20306;-67
2022/07/14 08:17:09;;;;;;;1.05;1.00;;;19.80;86.10;;;;;;6187398;28;20456;-67
2022/07/14 08:20:14;;;;;;;4.65;0.90;;;19.80;85.60;;;;;;6187240;28;20297;-67
2022/07/14 08:23:19;;;;;;;2.17;1.10;;;19.70;84.40;;;;;;6187645;28;20277;-67
2022/07/14 08:26:27;;;;;;;0.70;0.70;;;19.70;86.00;;;;;;6187635;28;20278;-67
2022/07/14 08:29:32;;;;;;;0.82;0.82;;;19.70;84.80;;;;;;6186948;28;20277;-67
2022/07/14 08:32:39;;;;;;;5.20;1.10;;;19.60;85.20;;;;;;6187357;28;20277;-67
2022/07/14 08:35:47;;;;;;;0.80;0.80;;;19.60;84.80;;;;;;6187098;28;20293;-67
2022/07/14 08:38:52;;;;;;;1.00;1.00;;;19.40;84.90;;;;;;6187113;28;20278;-67
2022/07/14 08:42:00;;;;;;;2.00;0.70;;;19.40;86.30;;;;;;6190403;28;20265;-66
2022/07/14 08:45:10;;;;;;;0.70;0.70;;;19.30;86.10;;;;;;6191957;28;20274;-67
2022/07/14 08:48:16;;;;;;;1.00;1.00;;;19.30;86.50;;;;;;6191675;28;20454;-66
2022/07/14 08:51:22;;;;;;;1.35;1.00;;;19.30;87.20;;;;;;6191765;28;20568;-67
2022/07/14 08:54:27;;;;;;;4.03;1.55;;;19.30;88.20;;;;;;6191638;28;20289;-67
2022/07/14 08:57:34;;;;;;;1.30;0.90;;;19.30;88.40;;;;;;6190816;28;20274;-67
2022/07/14 09:00:39;;;;;;;0.98;0.98;;;19.30;87.80;;;;;;6191128;28;20294;-67
2022/07/14 09:03:45;;;;;;;1.00;1.00;;;19.20;86.80;;;;;;6191530;28;20454;-67
2022/07/14 09:07:09;;;;;;;4.03;0.88;;;19.30;88.80;;;;;;6143886;29;20276;-67
2022/07/14 09:10:17;;;;;;;0.80;0.80;;;19.40;86.80;;;;;;6143085;29;20372;-66
2022/07/14 09:13:25;;;;;;;1.08;1.08;;;19.40;89.10;;;;;;6143483;29;20302;-66
2022/07/14 09:16:30;;;;;;;2.22;0.90;;;19.30;87.80;;;;;;6143514;29;20275;-67
2022/07/14 09:19:35;;;;;;;1.23;0.90;;;19.40;86.50;;;;;;6143352;29;20304;-67
2022/07/14 09:22:44;;;;;;;3.45;0.80;;;19.50;85.50;;;;;;6143384;29;20429;-67
2022/07/14 09:25:49;;;;;;;1.80;0.77;;;19.60;85.80;;;;;;6142914;29;20279;-66
2022/07/14 09:28:56;;;;;;;2.03;0.90;;;19.60;87.00;;;;;;6142686;29;20521;-66
2022/07/14 09:32:01;;;;;;;2.03;0.90;;;19.70;87.00;;;;;;6143283;29;20278;-67
2022/07/14 09:35:08;;;;;;;0.90;0.90;;;19.70;86.60;;;;;;6142959;29;20278;-66
2022/07/14 09:38:18;;;;;;;2.03;0.77;;;19.70;86.30;;;;;;6142556;29;20275;-66
2022/07/14 09:41:23;;;;;;;1.33;0.80;;;19.70;86.60;;;;;;6142735;29;20299;-67
2022/07/14 09:44:30;;;;;;;0.85;0.85;;;19.80;83.60;;;;;;6142639;29;20274;-68
2022/07/14 09:47:53;;;;;;;2.65;1.02;;;19.70;84.20;;;;;;6142728;29;20279;-67
2022/07/14 09:51:01;;;;;;;0.90;0.90;;;19.80;85.10;;;;;;6142663;29;20279;-66
2022/07/14 09:54:13;;;;;;;0.90;0.90;;;20.00;86.30;;;;;;6142219;29;20274;-66
2022/07/14 09:57:26;;;;;;;3.28;0.80;;;20.00;83.70;;;;;;6142114;29;20280;-66
2022/07/14 10:00:33;;;;;;;0.95;0.73;;;20.10;82.20;;;;;;6142354;29;20295;-67
2022/07/14 10:03:41;;;;;;;0.82;0.77;;;20.00;80.40;;;;;;6142423;29;20274;-67
2022/07/14 10:06:46;;;;;;;0.70;0.70;;;20.00;83.00;;;;;;6165954;29;20282;-66
2022/07/14 10:10:00;;;;;;;2.42;2.33;;;20.00;81.20;;;;;;6165901;29;20275;-66
2022/07/14 10:13:07;;;;;;;1.08;1.00;;;20.00;81.80;;;;;;6165855;28;20503;-68
2022/07/14 10:16:18;;;;;;;3.30;0.82;;;20.10;80.00;;;;;;6165937;29;20279;-67
2022/07/14 10:19:25;;;;;;;1.17;1.10;;;20.10;79.60;;;;;;6165831;29;20274;-67
2022/07/14 10:22:31;;;;;;;2.53;0.70;;;20.10;80.70;;;;;;6165749;29;20294;-67
2022/07/14 10:25:36;;;;;;;1.02;1.00;;;20.20;79.80;;;;;;6165836;29;20275;-67
2022/07/14 10:28:42;;;;;;;2.10;0.70;;;20.30;78.80;;;;;;6165592;29;20290;-67
2022/07/14 10:32:07;;;;;;;2.63;1.33;;;20.40;79.60;;;;;;6165710;29;20282;-66
2022/07/14 10:35:48;;;;;;;0.73;0.73;;;20.50;79.30;;;;;;6165821;29;20363;-66
2022/07/14 10:39:07;;;;;;;1.10;1.10;;;20.60;79.50;;;;;;6163818;29;20278;-66
2022/07/14 10:42:23;;;;;;;1.65;0.90;;;20.80;77.70;;;;;;6165435;29;20291;-68
2022/07/14 10:45:28;;;;;;;2.00;0.80;;;20.70;76.30;;;;;;6164378;29;20283;-66
2022/07/14 10:48:37;;;;;;;2.72;0.82;;;20.70;76.30;;;;;;6164816;28;20464;-66
2022/07/14 10:51:47;;;;;;;0.70;0.70;;;20.70;78.00;;;;;;6165074;29;20460;-67
2022/07/14 10:55:14;;;;;;;2.25;1.33;;;20.80;75.70;;;;;;6165198;29;20271;-67
2022/07/14 10:58:30;;;;;;;0.80;0.80;;;20.90;75.80;;;;;;6164748;29;20275;-67
2022/07/14 11:01:35;;;;;;;0.80;0.80;;;20.90;75.50;;;;;;6164872;29;20294;-67
2022/07/14 11:05:08;;;;;;;1.80;0.95;;;20.90;74.40;;;;;;6164217;28;20262;-67
2022/07/14 11:08:13;;;;;;;1.85;0.80;;;21.00;74.80;;;;;;6165119;28;20290;-67
2022/07/14 11:11:22;;;;;;;0.80;0.80;;;21.10;75.70;;;;;;6164877;28;20278;-67
2022/07/14 11:14:29;;;;;;;0.80;0.80;;;21.00;77.80;;;;;;6181858;28;20325;-67
2022/07/14 11:17:40;;;;;;;2.50;2.15;;;20.90;74.40;;;;;;6188668;28;20270;-67
2022/07/14 11:20:51;;;;;;;2.00;0.90;;;21.00;74.50;;;;;;6188833;28;20269;-67
2022/07/14 11:23:57;;;;;;;0.98;0.98;;;21.10;74.90;;;;;;6171553;28;20277;-67
2022/07/14 11:27:33;;;;;;;1.30;0.90;;;21.10;75.30;;;;;;6188508;28;20274;-68
2022/07/14 11:30:39;;;;;;;0.82;0.82;;;21.10;73.90;;;;;;6188463;28;20269;-68
2022/07/14 11:37:15;;;;;;;3.08;0.80;;;21.30;73.20;;;;;;6188386;28;20314;-68
2022/07/14 11:40:43;;;;;;;5.30;0.90;;;21.30;74.90;;;;;;6188225;28;20273;-68
2022/07/14 11:43:50;;;;;;;2.10;0.90;;;21.30;74.40;;;;;;6187818;28;20298;-68
2022/07/14 11:47:04;;;;;;;0.90;0.90;;;21.40;75.30;;;;;;6171102;28;20274;-67
2022/07/14 11:50:10;;;;;;;2.03;0.98;;;21.40;76.30;;;;;;6187814;28;20440;-66
2022/07/14 11:53:19;;;;;;;3.97;0.80;;;21.40;74.60;;;;;;6187594;28;20281;-66
2022/07/14 11:56:26;;;;;;;4.38;0.88;;;21.50;74.60;;;;;;6187730;28;20545;-66
2022/07/14 11:59:32;;;;;;;0.85;0.85;;;21.60;74.60;;;;;;6187816;28;20273;-67
2022/07/14 12:02:42;;;;;;;1.65;0.85;;;21.80;75.20;;;;;;6187390;28;20293;-67
2022/07/14 12:05:52;;;;;;;5.47;1.20;;;21.90;77.60;;;;;;6170882;28;20553;-67
2022/07/14 12:08:58;;;;;;;3.00;0.88;;;22.10;77.90;;;;;;6163914;28;20279;-67
2022/07/14 12:12:25;;;;;;;0.98;0.98;;;22.00;78.30;;;;;;6164043;29;20277;-67
2022/07/14 12:15:32;;;;;;;2.17;0.90;;;22.10;77.60;;;;;;6164757;28;20460;-67
2022/07/14 12:18:37;;;;;;;2.92;1.00;;;22.00;78.20;;;;;;6168577;28;20275;-67
2022/07/14 12:21:42;;;;;;;0.70;0.70;;;22.00;77.90;;;;;;6168786;29;20279;-67
2022/07/14 12:24:49;;;;;;;1.85;0.90;;;21.80;76.40;;;;;;6168651;29;20274;-65
2022/07/14 12:27:55;;;;;;;2.53;0.90;;;21.80;77.20;;;;;;6168564;29;20294;-66
2022/07/14 12:31:02;;;;;;;0.80;0.80;;;21.90;77.00;;;;;;6168673;29;20270;-68
2022/07/14 12:34:08;;;;;;;0.80;0.80;;;21.90;76.90;;;;;;6168429;29;20282;-66
2022/07/14 12:37:14;;;;;;;1.65;0.98;;;21.80;76.30;;;;;;6168575;28;20344;-66
2022/07/14 12:40:21;;;;;;;0.77;0.75;;;21.90;75.60;;;;;;6168207;29;20275;-66
2022/07/14 12:43:27;;;;;;;0.70;0.70;;;22.00;75.50;;;;;;6168290;28;20601;-66
2022/07/14 12:46:32;;;;;;;0.70;0.70;;;22.00;76.80;;;;;;6167901;29;20278;-67
2022/07/14 12:49:45;;;;;;;0.68;0.68;;;22.00;77.60;;;;;;6168142;29;20275;-67
2022/07/14 12:52:52;;;;;;;1.35;0.60;;;21.90;76.70;;;;;;6168132;29;20282;-67
2022/07/14 12:56:00;;;;;;;0.70;0.70;;;21.70;75.90;;;;;;6167632;29;20274;-67
2022/07/14 12:59:08;;;;;;;1.35;0.60;;;21.60;75.20;;;;;;6167661;29;20279;-67
2022/07/14 13:02:25;;;;;;;2.65;1.35;;;21.40;76.60;;;;;;6167911;29;20290;-67
2022/07/14 13:05:30;;;;;;;3.50;0.82;;;21.20;77.10;;;;;;6167948;29;20267;-67
2022/07/14 13:08:37;;;;;;;0.90;0.90;;;21.20;77.00;;;;;;6167636;28;20279;-67
2022/07/14 13:11:45;;;;;;;1.52;1.00;;;20.90;84.90;;;;;;6167601;29;20275;-67
2022/07/14 13:15:01;;;;;;;0.90;0.90;;;20.10;92.00;;;;;;6186988;28;20297;-67
2022/07/14 13:18:07;;;;;;;1.92;1.38;;;19.60;91.80;;;;;;6190875;28;20277;-67
2022/07/14 13:21:13;;;;;;;5.18;1.30;;;19.40;91.60;;;;;;6191480;28;20273;-67
2022/07/14 13:24:23;;;;;;;2.40;1.13;;;19.20;93.20;;;;;;6190771;28;20293;-67
2022/07/14 13:27:30;;;;;;;3.63;1.30;;;19.00;94.30;;;;;;6190237;28;20538;-67
2022/07/14 13:30:35;;;;;;;1.77;1.40;;;18.80;94.90;;;;;;6191154;28;20273;-67
2022/07/14 13:33:42;;;;;;;2.20;1.20;;;18.40;97.00;;;;;;6191605;28;20282;-67
2022/07/14 13:36:48;;;;;;;2.53;1.20;;;18.40;97.70;;;;;;6190828;28;20286;-66
2022/07/14 13:39:53;;;;;;;1.67;1.35;;;18.30;98.00;;;;;;6191040;28;20270;-66
2022/07/14 13:43:00;;;;;;;1.33;1.33;;;18.30;98.70;;;;;;6190707;28;20297;-66
2022/07/14 13:46:05;;;;;;;2.97;1.30;;;18.20;99.40;;;;;;6190362;28;20273;-66
2022/07/14 13:49:11;;;;;;;3.50;1.00;;;18.00;99.60;;;;;;6190739;28;20274;-66
2022/07/14 13:52:15;;;;;;;1.13;1.10;;;17.90;99.30;;;;;;6190629;28;20270;-66
2022/07/14 13:55:21;;;;;;;2.03;1.50;;;18.00;99.90;;;;;;6190212;28;20278;-66
2022/07/14 13:58:28;;;;;;;2.30;1.23;;;17.90;99.90;;;;;;6190126;28;20457;-67
2022/07/14 14:01:33;;;;;;;2.63;1.90;;;17.90;99.90;;;;;;6190537;28;20278;-67
2022/07/14 14:04:38;;;;;;;2.58;1.70;;;18.00;99.90;;;;;;6183458;28;20290;-67
2022/07/14 14:07:49;;;;;;;1.33;1.23;;;18.00;99.90;;;;;;6166591;29;20279;-67
2022/07/14 14:10:54;;;;;;;1.45;1.35;;;18.10;99.90;;;;;;6166268;29;20274;-67
2022/07/14 14:14:02;;;;;;;3.42;1.45;;;18.10;99.90;;;;;;6166392;29;20310;-69
2022/07/14 14:17:09;;;;;;;1.23;1.20;;;18.10;99.90;;;;;;6166277;29;20349;-66
2022/07/14 14:20:14;;;;;;;3.22;1.30;;;18.20;99.90;;;;;;6165699;29;20295;-66
2022/07/14 14:23:19;;;;;;;2.00;1.38;;;18.20;99.90;;;;;;6166277;28;20274;-66
2022/07/14 14:26:24;;;;;;;1.17;1.15;;;18.00;99.90;;;;;;6166011;29;20274;-66
2022/07/14 14:29:31;;;;;;;2.67;1.52;;;18.10;99.90;;;;;;6165899;29;20274;-66
2022/07/14 14:32:37;;;;;;;2.22;1.27;;;18.20;99.90;;;;;;6165796;29;20274;-66
2022/07/14 14:35:42;;;;;;;1.17;1.10;;;18.30;99.90;;;;;;6165752;29;20296;-66
2022/07/14 14:38:47;;;;;;;1.10;1.10;;;18.40;99.90;;;;;;6165663;28;20274;-66
2022/07/14 14:41:52;;;;;;;0.93;0.93;;;18.50;99.90;;;;;;6165734;29;20275;-66
2022/07/14 14:44:59;;;;;;;1.27;1.20;;;18.40;99.90;;;;;;6165445;29;20294;-66
2022/07/14 14:48:05;;;;;;;1.75;1.75;;;18.50;99.90;;;;;;6165520;29;20270;-66
2022/07/14 14:51:11;;;;;;;1.73;1.13;;;18.50;99.90;;;;;;6165476;29;20581;-66
2022/07/14 14:54:17;;;;;;;1.92;1.25;;;18.50;99.90;;;;;;6165510;29;20275;-67
2022/07/14 14:57:23;;;;;;;1.00;1.00;;;18.50;99.90;;;;;;6165318;29;20275;-67
2022/07/14 15:00:29;;;;;;;1.30;1.30;;;18.50;99.90;;;;;;6165157;29;20270;-67
2022/07/14 15:03:35;;;;;;;1.05;1.00;;;18.40;99.90;;;;;;6165136;29;20278;-67
2022/07/14 15:06:40;;;;;;;2.90;1.10;;;18.40;99.90;;;;;;6165380;29;20581;-67
2022/07/14 15:09:46;;;;;;;1.77;1.10;;;18.40;99.90;;;;;;6165054;28;20558;-66
2022/07/14 15:12:51;;;;;;;1.00;1.00;;;18.50;99.90;;;;;;6168340;28;20297;-66
2022/07/14 15:15:57;;;;;;;2.63;1.27;;;18.50;99.90;;;;;;6188517;28;20278;-66
2022/07/14 15:19:03;;;;;;;1.42;1.33;;;18.50;99.90;;;;;;6188422;28;20269;-66
2022/07/14 15:22:12;;;;;;;1.38;1.38;;;18.50;99.90;;;;;;6188463;28;20274;-66
2022/07/14 15:25:22;;;;;;;1.55;1.40;;;18.50;99.90;;;;;;6188607;28;20290;-66
2022/07/14 15:28:27;;;;;;;1.35;1.33;;;18.50;99.90;;;;;;6188609;28;20273;-66
2022/07/14 15:31:34;;;;;;;3.55;1.38;;;18.40;99.90;;;;;;6188492;28;20274;-67
2022/07/14 15:34:41;;;;;;;2.17;1.60;;;18.50;99.90;;;;;;6188317;28;20471;-66
2022/07/14 15:37:46;;;;;;;1.45;1.20;;;18.50;99.90;;;;;;6188369;28;20270;-66
2022/07/14 15:44:18;;;;;;;0.95;0.93;;;18.40;99.90;;;;;;6188015;28;20273;-67
2022/07/14 15:47:24;;;;;;;0.90;0.90;;;18.40;99.90;;;;;;6187692;28;20270;-67
2022/07/14 15:50:29;;;;;;;3.33;1.20;;;18.30;99.90;;;;;;6187747;28;20572;-67
2022/07/14 15:53:35;;;;;;;1.45;1.33;;;18.30;99.90;;;;;;6188035;28;20438;-67
2022/07/14 15:56:41;;;;;;;1.35;0.88;;;18.20;99.90;;;;;;6187933;28;20277;-67
2022/07/14 15:59:46;;;;;;;0.95;0.93;;;18.10;99.90;;;;;;6187981;28;20278;-67
2022/07/14 16:02:52;;;;;;;0.85;0.85;;;18.10;99.90;;;;;;6187598;28;20273;-67
2022/07/14 16:05:58;;;;;;;0.98;0.98;;;18.10;99.90;;;;;;6170592;28;20286;-67
2022/07/14 16:09:04;;;;;;;1.75;1.20;;;18.00;99.90;;;;;;6164016;28;20275;-67
2022/07/14 16:12:11;;;;;;;2.58;1.40;;;17.90;99.90;;;;;;6163760;28;20274;-67
2022/07/14 16:15:16;;;;;;;3.22;1.50;;;17.90;99.90;;;;;;6164533;29;20323;-67
2022/07/14 16:18:23;;;;;;;1.00;1.00;;;17.90;99.90;;;;;;6164146;28;20279;-68
2022/07/14 16:21:28;;;;;;;3.13;1.00;;;17.90;99.90;;;;;;6163769;29;20274;-68
2022/07/14 16:24:34;;;;;;;3.50;1.13;;;17.90;99.90;;;;;;6163789;29;20461;-68
2022/07/14 16:27:39;;;;;;;2.33;1.00;;;17.90;99.90;;;;;;6163563;29;20609;-67
2022/07/14 16:30:44;;;;;;;0.95;0.95;;;17.90;99.90;;;;;;6163620;29;20274;-67
2022/07/14 16:33:50;;;;;;;0.95;0.90;;;17.90;99.90;;;;;;6163531;29;20275;-67
2022/07/14 16:36:56;;;;;;;1.02;1.02;;;17.90;99.90;;;;;;6163913;29;20279;-68